Time;durP1;ratioP1;P1;durP2;ratioP2;P2;SDS_P1;SDS_P2;PMS_P1;PMS_P2;Temp;Humidity;BMP_temperature;BMP_pressure;BME280_temperature;BME280_humidity;BME280_pressure;Samples;Min_cycle;Max_cycle;Signal;HPM_P1;HPM_P2
2023/02/20 00:01:00;;;;;;;18.00;10.70;;;6.00;99.90;;;;;;5032102;28;20422;-75
2023/02/20 00:03:25;;;;;;;24.83;11.70;;;6.00;99.90;;;;;;5032114;28;20520;-75
2023/02/20 00:05:51;;;;;;;20.17;12.10;;;6.00;99.90;;;;;;5015755;28;20079;-75
2023/02/20 00:08:16;;;;;;;17.83;11.00;;;6.20;99.90;;;;;;5032116;28;20022;-76
2023/02/20 00:10:42;;;;;;;18.60;9.93;;;6.20;99.90;;;;;;5015346;28;20022;-76
2023/02/20 00:13:08;;;;;;;19.23;11.00;;;6.10;99.90;;;;;;5031855;28;20032;-76
2023/02/20 00:15:33;;;;;;;17.93;11.07;;;6.10;99.90;;;;;;5031980;28;20025;-76
2023/02/20 00:17:59;;;;;;;21.63;11.93;;;6.20;99.90;;;;;;5031926;28;20485;-75
2023/02/20 00:20:26;;;;;;;22.23;12.57;;;6.30;99.90;;;;;;5031970;28;20029;-79
2023/02/20 00:22:52;;;;;;;23.40;12.53;;;6.30;99.90;;;;;;5031898;28;20049;-80
2023/02/20 00:25:19;;;;;;;21.50;11.97;;;6.30;99.90;;;;;;5031703;28;20033;-80
2023/02/20 00:27:45;;;;;;;19.10;12.23;;;6.30;99.90;;;;;;5015564;28;20021;-80
2023/02/20 00:30:20;;;;;;;20.50;12.03;;;6.30;99.90;;;;;;5032120;28;20101;-80
2023/02/20 00:32:47;;;;;;;21.00;11.60;;;6.40;99.90;;;;;;5031831;28;20018;-79
2023/02/20 00:35:14;;;;;;;21.30;12.63;;;6.40;99.90;;;;;;5033986;28;20018;-80
2023/02/20 00:37:40;;;;;;;21.07;12.83;;;6.40;99.90;;;;;;5035880;28;20021;-80
2023/02/20 00:40:06;;;;;;;21.90;11.97;;;6.40;99.90;;;;;;5036248;28;20113;-80
2023/02/20 00:42:32;;;;;;;20.33;12.23;;;6.40;99.90;;;;;;5036972;28;20108;-74
2023/02/20 00:44:58;;;;;;;21.60;12.33;;;6.50;99.90;;;;;;5035776;28;20533;-74
2023/02/20 00:47:23;;;;;;;22.20;12.63;;;6.50;99.90;;;;;;5035750;28;20117;-74
2023/02/20 00:49:49;;;;;;;22.40;12.27;;;6.50;99.90;;;;;;5035681;28;20060;-74
2023/02/20 00:52:15;;;;;;;20.43;11.47;;;6.50;99.90;;;;;;5018944;28;20124;-74
2023/02/20 00:54:40;;;;;;;20.87;12.17;;;6.50;99.90;;;;;;5019139;28;20125;-74
2023/02/20 00:57:06;;;;;;;21.40;11.73;;;6.50;99.90;;;;;;5035571;28;20061;-74
2023/02/20 00:59:32;;;;;;;19.83;10.33;;;6.50;99.90;;;;;;5035593;28;20036;-74
2023/02/20 01:01:57;;;;;;;23.13;10.80;;;6.60;99.90;;;;;;5035497;28;20067;-74
2023/02/20 01:04:23;;;;;;;17.80;10.73;;;6.50;99.90;;;;;;5035402;28;20405;-74
2023/02/20 01:06:49;;;;;;;17.67;10.47;;;6.60;99.90;;;;;;5018787;28;20060;-74
2023/02/20 01:09:14;;;;;;;22.77;12.07;;;6.50;99.90;;;;;;5036514;28;20040;-74
2023/02/20 01:11:42;;;;;;;20.13;10.43;;;6.50;99.90;;;;;;5018693;28;20049;-74
2023/02/20 01:14:08;;;;;;;20.73;11.67;;;6.50;99.90;;;;;;5035082;28;20057;-74
2023/02/20 01:16:33;;;;;;;19.90;12.53;;;6.50;99.90;;;;;;5036386;28;20045;-74
2023/02/20 01:18:59;;;;;;;20.30;11.43;;;6.50;99.90;;;;;;5036273;28;20477;-74
2023/02/20 01:21:25;;;;;;;18.23;10.77;;;6.50;99.90;;;;;;5035105;28;20025;-74
2023/02/20 01:23:50;;;;;;;19.83;11.13;;;6.50;99.90;;;;;;5035149;28;20025;-74
2023/02/20 01:26:16;;;;;;;22.20;12.33;;;6.40;99.90;;;;;;5018436;28;20034;-74
2023/02/20 01:28:48;;;;;;;18.33;10.83;;;6.40;99.90;;;;;;5035128;28;20037;-74
2023/02/20 01:31:13;;;;;;;20.03;10.87;;;6.40;99.90;;;;;;5034823;28;20021;-74
2023/02/20 01:33:43;;;;;;;21.13;11.33;;;6.40;99.90;;;;;;5036109;28;20105;-74
2023/02/20 01:36:09;;;;;;;21.57;11.90;;;6.40;99.90;;;;;;5036026;28;20032;-74
2023/02/20 01:38:35;;;;;;;19.87;10.07;;;6.40;99.90;;;;;;5034689;28;20026;-74
2023/02/20 01:41:00;;;;;;;21.30;12.40;;;6.40;99.90;;;;;;5034716;28;20096;-74
2023/02/20 01:43:26;;;;;;;20.47;11.30;;;6.40;99.90;;;;;;5018288;28;20021;-74
2023/02/20 01:45:52;;;;;;;20.03;10.90;;;6.40;99.90;;;;;;5035219;28;20092;-80
2023/02/20 01:48:22;;;;;;;19.63;11.03;;;6.30;99.90;;;;;;5034468;28;20025;-80
2023/02/20 01:50:54;;;;;;;19.03;10.30;;;6.30;99.90;;;;;;5018886;28;20080;-80
2023/02/20 01:53:24;;;;;;;21.87;10.87;;;6.30;99.90;;;;;;5035760;28;20033;-80
2023/02/20 01:56:02;;;;;;;21.57;12.07;;;6.30;99.90;;;;;;5035683;28;20029;-79
2023/02/20 01:58:30;;;;;;;20.30;11.93;;;6.30;99.90;;;;;;5034366;28;20446;-79
2023/02/20 02:00:58;;;;;;;25.63;11.57;;;6.30;99.90;;;;;;5034294;28;20543;-79
2023/02/20 02:03:29;;;;;;;21.50;11.73;;;6.30;99.90;;;;;;5035522;28;20028;-79
2023/02/20 02:05:59;;;;;;;31.70;11.77;;;6.30;99.90;;;;;;5034163;28;20037;-74
2023/02/20 02:08:27;;;;;;;22.40;11.80;;;6.30;99.90;;;;;;5035457;28;20024;-73
2023/02/20 02:11:03;;;;;;;23.03;12.03;;;6.30;99.90;;;;;;5035391;28;20057;-74
2023/02/20 02:13:29;;;;;;;25.30;12.90;;;6.20;99.90;;;;;;5035441;28;20385;-79
2023/02/20 02:16:37;;;;;;;25.77;11.90;;;6.20;99.90;;;;;;5035086;28;20033;-79
2023/02/20 02:19:17;;;;;;;24.50;12.10;;;6.20;99.90;;;;;;5035100;28;20098;-80
2023/02/20 02:22:11;;;;;;;23.30;12.57;;;6.20;99.90;;;;;;5035187;28;20025;-80
2023/02/20 02:25:11;;;;;;;26.43;13.10;;;6.20;99.90;;;;;;5035227;28;20071;-80
2023/02/20 02:27:55;;;;;;;24.07;11.87;;;6.20;99.90;;;;;;5033728;28;20342;-80
2023/02/20 02:30:45;;;;;;;23.73;13.75;;;6.20;99.90;;;;;;5033690;28;20504;-80
2023/02/20 02:33:23;;;;;;;24.27;12.53;;;6.20;99.90;;;;;;5033769;28;20036;-80
2023/02/20 02:35:51;;;;;;;26.60;13.80;;;6.20;99.90;;;;;;5033751;28;20029;-79
2023/02/20 02:38:35;;;;;;;24.93;13.27;;;6.20;99.90;;;;;;5034793;28;20151;-80
2023/02/20 02:41:22;;;;;;;39.67;14.07;;;6.20;99.90;;;;;;5034930;28;20025;-80
2023/02/20 02:44:18;;;;;;;29.63;15.27;;;6.30;99.90;;;;;;5033616;28;20433;-79
2023/02/20 02:47:28;;;;;;;29.40;14.20;;;6.30;99.90;;;;;;5034600;28;20036;-80
2023/02/20 02:50:23;;;;;;;30.97;15.97;;;6.40;99.90;;;;;;5042231;28;20029;-80
2023/02/20 02:52:52;;;;;;;27.23;13.77;;;6.40;99.90;;;;;;5034656;28;20025;-79
2023/02/20 02:55:27;;;;;;;30.77;16.00;;;6.40;99.90;;;;;;5034658;28;20108;-79
2023/02/20 02:57:54;;;;;;;27.87;15.17;;;6.50;99.90;;;;;;5030605;28;20112;-80
2023/02/20 03:00:45;;;;;;;30.60;15.90;;;6.40;99.90;;;;;;5032905;28;20106;-80
2023/02/20 03:03:28;;;;;;;34.63;15.93;;;6.50;99.90;;;;;;5032979;28;20116;-80
2023/02/20 03:06:05;;;;;;;37.73;16.93;;;6.60;99.90;;;;;;5031728;28;20394;-80
2023/02/20 03:08:56;;;;;;;32.80;18.53;;;6.60;99.90;;;;;;5034171;28;20056;-80
2023/02/20 03:11:24;;;;;;;36.47;19.93;;;6.60;99.90;;;;;;5033190;28;20121;-80
2023/02/20 03:16:56;;;;;;;39.57;19.33;;;6.70;99.90;;;;;;5034425;28;20087;-80
2023/02/20 03:19:28;;;;;;;44.23;21.10;;;6.70;99.90;;;;;;5034148;28;20021;-79
2023/02/20 03:21:56;;;;;;;39.40;21.03;;;6.70;99.90;;;;;;5032897;28;20021;-80
2023/02/20 03:24:24;;;;;;;31.60;20.63;;;6.70;99.90;;;;;;5032699;28;20045;-80
2023/02/20 03:26:54;;;;;;;34.57;19.47;;;6.70;99.90;;;;;;5033845;28;20036;-80
2023/02/20 03:29:35;;;;;;;40.87;22.90;;;6.80;99.90;;;;;;5032706;28;20060;-80
2023/02/20 03:43:24;;;;;;;46.37;25.17;;;6.80;99.90;;;;;;5034091;28;20043;-79
2023/02/20 03:46:01;;;;;;;45.53;26.73;;;6.90;99.90;;;;;;5035227;28;20025;-80
2023/02/20 03:48:35;;;;;;;47.80;27.23;;;6.80;99.90;;;;;;5035186;28;20075;-80
2023/02/20 03:53:46;;;;;;;57.33;30.20;;;6.90;99.90;;;;;;5034355;28;20045;-80
2023/02/20 03:56:33;;;;;;;51.80;28.00;;;6.90;99.90;;;;;;5033908;28;20076;-79
2023/02/20 03:59:24;;;;;;;57.57;31.13;;;6.90;99.90;;;;;;5034884;28;20025;-81
2023/02/20 04:01:56;;;;;;;47.13;29.40;;;6.90;99.90;;;;;;5034071;28;20104;-80
2023/02/20 04:04:36;;;;;;;55.07;31.07;;;6.90;99.90;;;;;;5033576;28;20025;-79
2023/02/20 04:07:06;;;;;;;54.40;32.90;;;6.90;99.90;;;;;;5033475;28;20026;-79
2023/02/20 04:09:34;;;;;;;58.87;34.10;;;7.00;99.90;;;;;;5031658;28;20379;-79
2023/02/20 04:12:17;;;;;;;53.03;31.97;;;6.90;99.90;;;;;;5031866;28;20111;-80
2023/02/20 04:14:45;;;;;;;63.87;32.43;;;7.00;99.90;;;;;;5031657;28;20041;-81
2023/02/20 04:17:14;;;;;;;56.83;33.90;;;7.00;99.90;;;;;;5015571;28;20052;-80
2023/02/20 04:19:40;;;;;;;54.03;33.53;;;7.00;99.90;;;;;;5031976;28;20504;-80
2023/02/20 04:22:10;;;;;;;61.10;35.00;;;7.00;99.90;;;;;;5033170;28;20033;-80
2023/02/20 04:24:39;;;;;;;56.83;33.43;;;7.10;99.90;;;;;;5031947;28;20108;-80
2023/02/20 04:27:06;;;;;;;60.13;33.33;;;7.10;99.90;;;;;;5031744;28;20026;-80
2023/02/20 04:29:31;;;;;;;64.17;36.53;;;7.10;99.90;;;;;;5031783;28;20018;-81
2023/02/20 04:31:57;;;;;;;63.50;36.47;;;7.10;99.90;;;;;;5031899;28;20128;-81
2023/02/20 04:34:23;;;;;;;60.17;35.17;;;7.10;99.90;;;;;;5031854;28;20052;-80
2023/02/20 04:36:56;;;;;;;62.60;35.07;;;7.10;99.90;;;;;;5031925;28;20038;-80
2023/02/20 04:39:22;;;;;;;65.80;35.20;;;7.10;99.90;;;;;;5033041;28;20032;-80
2023/02/20 04:41:47;;;;;;;68.80;37.17;;;7.20;99.90;;;;;;5015462;28;20390;-80
2023/02/20 04:44:32;;;;;;;69.47;35.47;;;7.20;99.90;;;;;;5031812;28;20033;-80
2023/02/20 04:46:59;;;;;;;62.17;35.53;;;7.20;99.90;;;;;;5017860;28;20489;-80
2023/02/20 04:49:24;;;;;;;64.40;36.83;;;7.20;99.90;;;;;;5033285;28;20112;-80
2023/02/20 04:51:50;;;;;;;58.73;35.97;;;7.20;99.90;;;;;;5032767;28;20053;-81
2023/02/20 04:54:16;;;;;;;62.23;36.13;;;7.20;99.90;;;;;;5031609;28;20021;-81
2023/02/20 04:56:41;;;;;;;60.57;34.27;;;7.20;99.90;;;;;;5031702;28;20449;-80
2023/02/20 04:59:07;;;;;;;66.97;36.07;;;7.30;99.90;;;;;;4998899;28;20442;-80
2023/02/20 05:01:33;;;;;;;63.00;34.60;;;7.30;99.90;;;;;;5031564;28;20057;-80
2023/02/20 05:03:58;;;;;;;62.47;34.17;;;7.30;99.90;;;;;;5031663;28;20034;-80
2023/02/20 05:06:24;;;;;;;61.80;31.60;;;7.30;99.90;;;;;;5031408;28;20025;-80
2023/02/20 05:08:50;;;;;;;53.63;30.93;;;7.30;99.90;;;;;;5032776;28;20033;-80
2023/02/20 05:11:16;;;;;;;63.87;32.43;;;7.30;99.90;;;;;;5031648;28;20049;-80
2023/02/20 05:13:42;;;;;;;59.33;30.83;;;7.30;99.90;;;;;;5032585;28;20489;-75
2023/02/20 05:16:07;;;;;;;58.33;30.50;;;7.40;99.90;;;;;;5015000;28;20029;-74
2023/02/20 05:18:33;;;;;;;54.43;28.67;;;7.40;99.90;;;;;;5032759;28;20038;-74
2023/02/20 05:23:45;;;;;;;55.40;31.35;;;7.40;99.90;;;;;;5035577;28;20509;-75
2023/02/20 05:26:15;;;;;;;52.73;29.90;;;7.50;99.90;;;;;;5034876;28;20025;-74
2023/02/20 05:28:41;;;;;;;55.97;28.37;;;7.50;99.90;;;;;;5036122;28;20028;-75
2023/02/20 05:31:07;;;;;;;54.47;28.93;;;7.40;99.90;;;;;;5018510;28;20413;-75
2023/02/20 05:33:32;;;;;;;52.03;28.27;;;7.50;99.90;;;;;;5034621;28;20508;-79
2023/02/20 05:35:59;;;;;;;49.30;27.60;;;7.50;99.90;;;;;;5018352;28;20041;-76
2023/02/20 05:38:25;;;;;;;62.60;28.70;;;7.50;99.90;;;;;;5034514;28;20028;-76
2023/02/20 05:40:50;;;;;;;48.87;25.93;;;7.50;99.90;;;;;;5036108;28;20033;-76
2023/02/20 05:43:17;;;;;;;44.47;25.00;;;7.60;99.90;;;;;;5034904;28;20030;-76
2023/02/20 05:45:43;;;;;;;52.20;24.83;;;7.60;99.90;;;;;;5035930;28;20029;-77
2023/02/20 05:48:11;;;;;;;49.37;26.40;;;7.60;99.90;;;;;;5034479;28;20037;-76
2023/02/20 05:50:36;;;;;;;48.27;24.07;;;7.60;99.90;;;;;;5018044;28;20030;-76
2023/02/20 05:53:02;;;;;;;45.73;24.07;;;7.60;99.90;;;;;;5034648;28;20025;-77
2023/02/20 05:55:29;;;;;;;48.57;25.13;;;7.70;99.90;;;;;;5035856;28;20563;-76
2023/02/20 05:57:55;;;;;;;45.77;24.23;;;7.60;99.90;;;;;;5002087;28;20397;-76
2023/02/20 06:00:21;;;;;;;38.40;23.30;;;7.70;99.90;;;;;;5034483;28;20393;-76
2023/02/20 06:02:47;;;;;;;42.93;24.63;;;7.70;99.90;;;;;;5035556;28;20029;-76
2023/02/20 06:05:13;;;;;;;47.50;25.00;;;7.70;99.90;;;;;;5035588;28;20527;-76
2023/02/20 06:07:39;;;;;;;51.50;25.90;;;7.80;99.90;;;;;;5034493;28;20025;-77
2023/02/20 06:10:05;;;;;;;39.53;22.80;;;7.70;99.90;;;;;;5034175;28;20033;-76
2023/02/20 06:12:30;;;;;;;45.60;23.67;;;7.80;99.90;;;;;;5035304;28;20473;-76
2023/02/20 06:14:56;;;;;;;46.23;22.60;;;7.80;99.90;;;;;;5001272;28;20080;-76
2023/02/20 06:17:22;;;;;;;42.60;22.97;;;7.80;99.90;;;;;;5035371;28;20034;-76
2023/02/20 06:19:49;;;;;;;45.57;24.13;;;7.80;99.90;;;;;;5033941;28;20056;-76
2023/02/20 06:22:16;;;;;;;46.23;24.03;;;7.80;99.90;;;;;;5033882;28;20482;-76
2023/02/20 06:24:46;;;;;;;61.17;24.50;;;7.90;99.90;;;;;;5033968;28;20473;-76
2023/02/20 06:27:11;;;;;;;49.63;24.97;;;7.90;99.90;;;;;;5033770;28;20036;-76
2023/02/20 06:29:37;;;;;;;49.23;25.43;;;7.90;99.90;;;;;;5035018;28;20030;-77
2023/02/20 06:32:03;;;;;;;57.27;25.47;;;7.90;99.90;;;;;;5032157;28;20048;-77
2023/02/20 06:34:32;;;;;;;57.03;27.57;;;7.90;99.90;;;;;;5030786;28;20044;-76
2023/02/20 06:37:01;;;;;;;50.53;25.73;;;7.90;99.90;;;;;;5016534;28;20079;-77
2023/02/20 06:39:28;;;;;;;51.53;26.93;;;7.90;99.90;;;;;;5028789;28;20046;-76
2023/02/20 06:41:54;;;;;;;44.63;24.60;;;7.90;99.90;;;;;;5033188;28;20472;-77
2023/02/20 06:44:20;;;;;;;46.17;25.23;;;8.00;99.90;;;;;;5029913;28;20176;-80
2023/02/20 06:46:46;;;;;;;43.07;24.53;;;7.90;99.90;;;;;;5032982;28;20034;-80
2023/02/20 06:49:12;;;;;;;51.27;23.30;;;8.00;99.90;;;;;;5023015;28;20474;-80
2023/02/20 06:51:39;;;;;;;45.23;23.57;;;8.00;99.90;;;;;;5032931;28;20036;-80
2023/02/20 06:54:05;;;;;;;59.03;25.57;;;8.00;99.90;;;;;;5032765;28;20029;-80
2023/02/20 06:56:33;;;;;;;44.47;24.40;;;8.10;99.90;;;;;;5033236;28;20474;-81
2023/02/20 06:58:59;;;;;;;36.87;21.47;;;8.00;99.90;;;;;;5033250;28;20033;-79
2023/02/20 07:01:28;;;;;;;38.53;22.53;;;8.10;99.90;;;;;;5033503;28;20088;-80
2023/02/20 07:03:54;;;;;;;37.13;22.03;;;8.10;99.90;;;;;;5034069;28;20033;-80
2023/02/20 07:06:21;;;;;;;42.63;22.50;;;8.10;99.90;;;;;;5034760;28;20037;-80
2023/02/20 07:08:47;;;;;;;46.97;23.60;;;8.10;99.90;;;;;;5033395;28;20061;-80
2023/02/20 07:11:13;;;;;;;47.60;24.73;;;8.10;99.90;;;;;;5017030;28;20069;-79
2023/02/20 07:13:39;;;;;;;43.00;23.47;;;8.10;99.90;;;;;;5013112;28;20076;-80
2023/02/20 07:16:05;;;;;;;48.30;23.40;;;8.20;99.90;;;;;;4997041;28;20034;-80
2023/02/20 07:18:31;;;;;;;40.80;21.93;;;8.20;99.90;;;;;;5032352;28;20061;-80
2023/02/20 07:20:57;;;;;;;49.93;23.93;;;8.20;99.90;;;;;;5032870;28;20068;-80
2023/02/20 07:23:23;;;;;;;47.63;23.80;;;8.20;99.90;;;;;;5033023;28;20040;-79
2023/02/20 07:25:49;;;;;;;45.53;25.97;;;8.20;99.90;;;;;;5034161;28;20669;-80
2023/02/20 07:28:17;;;;;;;53.70;24.67;;;8.20;99.90;;;;;;5034219;28;20394;-81
2023/02/20 07:30:43;;;;;;;45.03;23.10;;;8.20;99.90;;;;;;5033083;28;20493;-81
2023/02/20 07:33:09;;;;;;;54.60;25.33;;;8.20;99.90;;;;;;5016459;28;20029;-81
2023/02/20 07:35:35;;;;;;;53.47;26.73;;;8.30;99.90;;;;;;5032635;28;20033;-81
2023/02/20 07:38:01;;;;;;;50.00;24.47;;;8.20;99.90;;;;;;5032175;28;20033;-80
2023/02/20 07:40:27;;;;;;;46.73;26.03;;;8.30;99.90;;;;;;5016405;28;20385;-80
2023/02/20 07:42:52;;;;;;;49.77;25.40;;;8.30;99.90;;;;;;5033055;28;20471;-81
2023/02/20 07:45:18;;;;;;;54.93;24.43;;;8.30;99.90;;;;;;5015451;28;20036;-82
2023/02/20 07:47:44;;;;;;;53.60;26.83;;;8.30;99.90;;;;;;5032244;28;20449;-80
2023/02/20 07:50:10;;;;;;;56.47;27.70;;;8.40;99.90;;;;;;5032467;28;20030;-80
2023/02/20 07:52:35;;;;;;;49.03;26.50;;;8.40;99.90;;;;;;5014352;28;20482;-80
2023/02/20 07:55:01;;;;;;;52.07;26.07;;;8.30;99.90;;;;;;5018485;28;20030;-80
2023/02/20 07:57:29;;;;;;;50.97;25.60;;;8.40;99.90;;;;;;5015890;28;20037;-81
2023/02/20 07:59:55;;;;;;;50.00;27.57;;;8.40;99.90;;;;;;5032330;28;20428;-80
2023/02/20 08:02:20;;;;;;;49.03;26.00;;;8.40;99.90;;;;;;5032134;28;20048;-81
2023/02/20 08:04:46;;;;;;;47.07;26.13;;;8.40;99.90;;;;;;5028333;28;20034;-81
2023/02/20 08:07:11;;;;;;;46.43;24.73;;;8.40;99.90;;;;;;5015219;28;20382;-81
2023/02/20 08:09:37;;;;;;;47.13;26.13;;;8.50;99.90;;;;;;5015371;28;20104;-81
2023/02/20 08:12:03;;;;;;;43.20;24.43;;;8.50;99.90;;;;;;4999175;28;20056;-82
2023/02/20 08:14:30;;;;;;;48.40;26.07;;;8.50;99.90;;;;;;4996047;28;20072;-80
2023/02/20 08:16:55;;;;;;;49.30;26.97;;;8.40;99.90;;;;;;5006348;28;20041;-81
2023/02/20 08:19:21;;;;;;;45.67;24.77;;;8.50;99.90;;;;;;5018327;28;20052;-80
2023/02/20 08:21:47;;;;;;;46.03;25.77;;;8.50;99.90;;;;;;5012433;28;20054;-80
2023/02/20 08:24:12;;;;;;;50.43;25.43;;;8.50;99.90;;;;;;5012380;28;20038;-80
2023/02/20 08:26:45;;;;;;;43.43;25.60;;;8.50;99.90;;;;;;5024525;28;20072;-81
2023/02/20 08:29:11;;;;;;;46.90;26.03;;;8.50;99.90;;;;;;5019373;28;20458;-80
2023/02/20 08:31:37;;;;;;;48.97;25.50;;;8.50;99.90;;;;;;5012463;28;20022;-80
2023/02/20 08:34:03;;;;;;;44.57;25.20;;;8.50;99.90;;;;;;4995854;28;20509;-80
2023/02/20 08:36:29;;;;;;;48.37;25.40;;;8.60;99.90;;;;;;5012234;28;20092;-78
2023/02/20 08:38:56;;;;;;;53.80;26.60;;;8.60;99.90;;;;;;5005164;28;20038;-78
2023/02/20 08:41:21;;;;;;;41.90;24.23;;;8.60;99.90;;;;;;5015411;28;20033;-77
2023/02/20 08:43:47;;;;;;;45.60;21.63;;;8.60;99.90;;;;;;5031777;28;20052;-77
2023/02/20 08:46:13;;;;;;;48.77;24.67;;;8.60;99.90;;;;;;5014896;28;20026;-77
2023/02/20 08:48:40;;;;;;;43.07;23.97;;;8.70;99.90;;;;;;5030759;28;20029;-77
2023/02/20 08:51:06;;;;;;;45.50;24.30;;;8.60;99.90;;;;;;4995806;28;20030;-81
2023/02/20 08:53:33;;;;;;;43.70;24.80;;;8.70;99.90;;;;;;4995539;28;20029;-80
2023/02/20 08:55:58;;;;;;;49.13;24.63;;;8.60;99.90;;;;;;4997162;28;20037;-77
2023/02/20 08:58:25;;;;;;;40.50;22.87;;;8.70;99.90;;;;;;4999365;28;20486;-77
2023/02/20 09:00:52;;;;;;;47.40;23.13;;;8.70;99.90;;;;;;5029704;28;20036;-77
2023/02/20 09:03:17;;;;;;;42.93;23.93;;;8.80;99.90;;;;;;5035149;28;20047;-77
2023/02/20 09:05:43;;;;;;;40.93;22.20;;;8.80;99.90;;;;;;5035915;28;20029;-75
2023/02/20 09:08:09;;;;;;;43.17;24.13;;;8.80;99.90;;;;;;5024838;28;20481;-75
2023/02/20 09:10:35;;;;;;;39.60;20.57;;;8.90;99.90;;;;;;5015646;28;20061;-75
2023/02/20 09:13:01;;;;;;;44.60;22.30;;;8.90;99.90;;;;;;5000564;28;20068;-75
2023/02/20 09:15:28;;;;;;;37.87;20.17;;;8.90;99.90;;;;;;5015490;28;20140;-75
2023/02/20 09:17:54;;;;;;;37.67;20.77;;;8.90;99.90;;;;;;4999371;28;20498;-74
2023/02/20 09:20:21;;;;;;;31.77;18.27;;;8.90;99.90;;;;;;5031985;28;20140;-73
2023/02/20 09:22:50;;;;;;;29.87;19.00;;;8.90;99.90;;;;;;5035447;28;20124;-73
2023/02/20 09:25:16;;;;;;;34.80;18.67;;;9.00;99.90;;;;;;5018539;28;20037;-73
2023/02/20 09:27:42;;;;;;;34.87;17.10;;;9.00;99.90;;;;;;5035845;28;20025;-73
2023/02/20 09:30:10;;;;;;;40.00;19.87;;;9.00;99.90;;;;;;5036003;28;20041;-73
2023/02/20 09:32:36;;;;;;;34.80;18.27;;;9.00;99.90;;;;;;5035062;28;20033;-73
2023/02/20 09:35:02;;;;;;;31.63;17.80;;;9.00;99.90;;;;;;5018170;28;20022;-73
2023/02/20 09:37:28;;;;;;;31.27;17.57;;;9.00;99.90;;;;;;5034690;28;20029;-73
2023/02/20 09:39:53;;;;;;;37.70;18.40;;;9.10;99.90;;;;;;5035198;28;20068;-74
2023/02/20 09:42:49;;;;;;;36.10;16.70;;;9.10;99.90;;;;;;5034539;28;20087;-74
2023/02/20 09:45:19;;;;;;;37.37;17.53;;;9.10;99.90;;;;;;5019297;28;20022;-74
2023/02/20 09:47:58;;;;;;;33.80;16.57;;;9.10;99.90;;;;;;5033031;28;20021;-74
2023/02/20 09:50:42;;;;;;;30.07;17.20;;;9.10;99.90;;;;;;5025696;28;20049;-74
2023/02/20 09:53:30;;;;;;;37.70;19.63;;;9.10;99.90;;;;;;5032843;28;20100;-73
2023/02/20 09:55:57;;;;;;;33.93;17.03;;;9.10;99.90;;;;;;5023535;28;20065;-73
2023/02/20 09:58:43;;;;;;;34.23;18.77;;;9.10;99.90;;;;;;5021243;28;20026;-73
2023/02/20 10:01:13;;;;;;;36.60;17.13;;;9.10;99.90;;;;;;5033945;28;20377;-73
2023/02/20 10:04:01;;;;;;;29.57;15.47;;;9.10;99.90;;;;;;5034539;28;20021;-73
2023/02/20 10:06:32;;;;;;;38.37;17.70;;;9.10;99.90;;;;;;5020763;28;20061;-73
2023/02/20 10:08:59;;;;;;;34.27;16.37;;;9.10;99.90;;;;;;5015825;28;20451;-73
2023/02/20 10:11:43;;;;;;;32.93;16.03;;;9.10;99.90;;;;;;5016027;28;20026;-73
2023/02/20 10:14:44;;;;;;;38.22;17.27;;;9.10;99.90;;;;;;5015840;28;20050;-73
2023/02/20 10:17:18;;;;;;;31.00;16.37;;;9.10;99.90;;;;;;5014492;28;20021;-74
2023/02/20 10:19:47;;;;;;;;;;;9.10;99.90;;;;;;5016215;28;20025;-74
2023/02/20 10:22:29;;;;;;;33.60;15.43;;;9.10;99.90;;;;;;5014263;28;19905;-74
2023/02/20 10:25:02;;;;;;;33.00;14.70;;;9.10;99.90;;;;;;5025891;28;20060;-74
2023/02/20 10:27:53;;;;;;;34.57;15.07;;;9.10;99.90;;;;;;5034000;28;20030;-80
2023/02/20 10:30:28;;;;;;;30.37;14.70;;;9.10;99.90;;;;;;5035164;28;20025;-74
2023/02/20 10:33:13;;;;;;;32.03;14.93;;;9.10;99.90;;;;;;5033574;28;20022;-81
2023/02/20 10:35:48;;;;;;;30.77;15.70;;;9.10;99.90;;;;;;5035242;28;20018;-79
2023/02/20 10:38:19;;;;;;;29.03;15.73;;;9.10;99.90;;;;;;5033850;28;20116;-81
2023/02/20 10:40:56;;;;;;;33.87;17.23;;;9.10;99.90;;;;;;5034995;28;20029;-80
2023/02/20 10:43:42;;;;;;;38.63;18.37;;;9.10;99.90;;;;;;5033714;28;20048;-79
2023/02/20 10:46:34;;;;;;;34.80;19.83;;;9.10;99.90;;;;;;5034781;28;20442;-79
2023/02/20 10:49:05;;;;;;;42.00;20.57;;;9.10;99.90;;;;;;5033632;28;20030;-80
2023/02/20 10:51:41;;;;;;;33.77;19.30;;;9.10;99.90;;;;;;5017756;28;20060;-79
2023/02/20 10:54:13;;;;;;;44.83;20.67;;;9.10;99.90;;;;;;5034745;28;20100;-80
2023/02/20 10:57:06;;;;;;;35.03;19.70;;;9.10;99.90;;;;;;5034572;28;20109;-79
2023/02/20 11:00:03;;;;;;;39.03;19.40;;;9.10;99.90;;;;;;5029750;28;20128;-79
2023/02/20 11:02:38;;;;;;;26.67;15.30;;;9.20;99.90;;;;;;5032084;28;20022;-80
2023/02/20 11:05:11;;;;;;;29.43;15.43;;;9.20;99.90;;;;;;5032435;28;20033;-79
2023/02/20 11:07:36;;;;;;;31.00;15.63;;;9.20;99.90;;;;;;5013081;28;20471;-79
2023/02/20 11:10:03;;;;;;;31.00;14.67;;;9.20;99.90;;;;;;5023400;28;20037;-79
2023/02/20 11:12:29;;;;;;;27.03;13.53;;;9.30;99.90;;;;;;5033513;28;20476;-79
2023/02/20 11:14:57;;;;;;;24.30;11.27;;;9.30;99.90;;;;;;5032427;28;20077;-79
2023/02/20 11:17:25;;;;;;;28.13;11.00;;;9.30;99.90;;;;;;5031999;28;20033;-79
2023/02/20 11:19:53;;;;;;;25.17;10.30;;;9.30;99.90;;;;;;5034099;28;20025;-79
2023/02/20 11:22:37;;;;;;;23.10;9.40;;;9.30;99.90;;;;;;5035938;28;20507;-80
2023/02/20 11:25:24;;;;;;;25.45;10.35;;;9.30;99.90;;;;;;5015297;28;20037;-79
2023/02/20 11:27:54;;;;;;;34.27;8.70;;;9.30;99.90;;;;;;5015717;28;20030;-79
2023/02/20 11:30:30;;;;;;;18.57;8.00;;;9.40;99.90;;;;;;5013869;28;20021;-79
2023/02/20 11:33:21;;;;;;;19.03;7.20;;;9.40;99.90;;;;;;5013717;28;20474;-79
2023/02/20 11:35:54;;;;;;;19.53;7.23;;;9.40;99.90;;;;;;5014374;28;20490;-79
2023/02/20 11:38:25;;;;;;;17.50;7.50;;;9.40;99.90;;;;;;5014308;28;20112;-79
2023/02/20 11:41:00;;;;;;;13.80;6.60;;;9.40;99.90;;;;;;5013089;28;20437;-78
2023/02/20 11:43:38;;;;;;;18.60;7.17;;;9.40;99.90;;;;;;5013023;28;20029;-79
2023/02/20 11:46:15;;;;;;;16.73;6.73;;;9.40;99.90;;;;;;5017833;28;20381;-79
2023/02/20 11:48:58;;;;;;;15.13;7.40;;;9.50;99.90;;;;;;5034251;28;20025;-79
2023/02/20 11:51:44;;;;;;;21.47;7.93;;;9.50;99.90;;;;;;5030826;28;20033;-79
2023/02/20 11:54:09;;;;;;;12.23;6.67;;;9.40;99.90;;;;;;5032259;28;20458;-79
2023/02/20 11:56:35;;;;;;;19.27;7.30;;;9.40;99.90;;;;;;5033746;28;20057;-79
2023/02/20 11:59:28;;;;;;;23.37;9.27;;;9.50;99.90;;;;;;5033642;28;20524;-73
2023/02/20 12:01:54;;;;;;;15.43;7.13;;;9.40;99.90;;;;;;5032178;28;20021;-76
2023/02/20 12:04:23;;;;;;;17.23;6.97;;;9.50;99.90;;;;;;5032409;28;20029;-78
2023/02/20 12:06:49;;;;;;;16.37;7.30;;;9.40;99.90;;;;;;5032252;28;20075;-77
2023/02/20 12:09:19;;;;;;;15.93;7.37;;;9.50;99.90;;;;;;5032440;28;20026;-78
2023/02/20 12:11:45;;;;;;;18.17;7.27;;;9.50;99.90;;;;;;5032101;28;20055;-79
2023/02/20 12:14:13;;;;;;;17.03;5.97;;;9.50;99.90;;;;;;5015557;28;20049;-78
2023/02/20 12:16:48;;;;;;;17.63;5.53;;;9.60;99.90;;;;;;5031630;28;20098;-78
2023/02/20 12:19:45;;;;;;;16.07;6.03;;;9.60;99.90;;;;;;5033296;28;20064;-78
2023/02/20 12:22:54;;;;;;;17.07;5.80;;;9.60;99.90;;;;;;5032951;28;20026;-79
2023/02/20 12:25:58;;;;;;;10.17;4.80;;;9.60;99.90;;;;;;5031678;28;20043;-79
2023/02/20 12:28:35;;;;;;;11.98;5.00;;;9.60;99.90;;;;;;5031792;28;20025;-78
2023/02/20 12:31:16;;;;;;;15.73;5.80;;;9.60;99.90;;;;;;5036331;28;20540;-78
2023/02/20 12:33:47;;;;;;;17.23;5.40;;;9.60;99.90;;;;;;5038130;28;20146;-79
2023/02/20 12:36:50;;;;;;;12.73;5.07;;;9.60;99.90;;;;;;5038892;28;20026;-77
2023/02/20 12:39:47;;;;;;;12.60;5.63;;;9.60;99.90;;;;;;5038218;28;20021;-77
2023/02/20 12:42:49;;;;;;;10.23;4.40;;;9.60;99.90;;;;;;5038673;28;20022;-77
2023/02/20 12:45:52;;;;;;;13.67;5.43;;;9.60;99.90;;;;;;5038337;28;20029;-77
2023/02/20 12:48:55;;;;;;;12.70;4.90;;;9.60;99.90;;;;;;5038638;28;20457;-77
2023/02/20 12:51:36;;;;;;;12.27;4.70;;;9.60;99.90;;;;;;5038674;28;20033;-78
2023/02/20 12:54:37;;;;;;;14.20;4.90;;;9.70;99.90;;;;;;5038635;28;20366;-77
2023/02/20 12:57:08;;;;;;;9.40;4.43;;;9.70;99.90;;;;;;5035474;28;20441;-77
2023/02/20 12:59:58;;;;;;;11.57;4.90;;;9.70;99.90;;;;;;5032559;28;20033;-78
2023/02/20 13:02:38;;;;;;;13.17;4.30;;;9.80;99.90;;;;;;5028265;28;20083;-78
2023/02/20 13:05:07;;;;;;;12.73;4.40;;;9.70;99.90;;;;;;5044107;28;20040;-77
2023/02/20 13:07:35;;;;;;;11.50;4.23;;;9.70;99.90;;;;;;5019107;28;20036;-78
2023/02/20 13:10:10;;;;;;;15.83;4.40;;;9.80;99.90;;;;;;5019750;28;20029;-78
2023/02/20 13:12:35;;;;;;;11.17;4.37;;;9.70;99.90;;;;;;5033156;28;20032;-77
2023/02/20 13:15:26;;;;;;;10.17;3.77;;;9.70;99.90;;;;;;5021709;28;20049;-77
2023/02/20 13:18:37;;;;;;;14.03;4.93;;;9.80;99.90;;;;;;5038575;28;20454;-76
2023/02/20 13:21:15;;;;;;;14.67;4.50;;;9.80;99.90;;;;;;5033671;28;20045;-77